Time;durP1;ratioP1;P1;durP2;ratioP2;P2;SDS_P1;SDS_P2;PMS_P1;PMS_P2;Temp;Humidity;BMP_temperature;BMP_pressure;BME280_temperature;BME280_humidity;BME280_pressure;Samples;Min_cycle;Max_cycle;Signal;HPM_P1;HPM_P2
2022/05/11 00:01:43;;;;;;;35.40;12.52;;;;;;;9.87;100.00;100627.50;4884140;29;20462;-77
2022/05/11 00:04:10;;;;;;;36.88;12.10;;;;;;;9.83;100.00;100627.06;4917816;29;20032;-77
2022/05/11 00:06:37;;;;;;;44.03;12.48;;;;;;;9.80;100.00;100627.47;4885219;29;20067;-77
2022/05/11 00:09:20;;;;;;;39.05;12.43;;;;;;;9.76;100.00;100625.34;4898610;29;20032;-77
2022/05/11 00:11:46;;;;;;;32.20;12.70;;;;;;;9.79;100.00;100633.84;4898798;29;20092;-77
2022/05/11 00:14:12;;;;;;;38.47;11.55;;;;;;;9.52;100.00;100587.19;4882649;29;20044;-77
2022/05/11 00:16:38;;;;;;;34.90;11.68;;;;;;;9.75;100.00;100624.53;4911397;29;20020;-77
2022/05/11 00:19:03;;;;;;;30.55;11.60;;;;;;;9.76;100.00;100618.13;4901423;29;20032;-77
2022/05/11 00:21:30;;;;;;;35.88;11.75;;;;;;;9.67;100.00;100605.91;4869350;29;20047;-77
2022/05/11 00:23:55;;;;;;;38.92;12.02;;;;;;;9.71;100.00;100627.81;4903741;29;20094;-77
2022/05/11 00:26:21;;;;;;;35.85;11.38;;;;;;;9.70;100.00;100610.00;4879640;29;20036;-77
2022/05/11 00:28:46;;;;;;;38.38;11.35;;;;;;;9.64;100.00;100614.34;4900419;29;20052;-77
2022/05/11 00:31:13;;;;;;;36.58;11.98;;;;;;;9.70;100.00;100623.44;4903971;29;20048;-77
2022/05/11 00:33:39;;;;;;;43.25;12.68;;;;;;;9.54;100.00;100603.13;4864570;29;20364;-77
2022/05/11 00:36:11;;;;;;;42.60;12.43;;;;;;;9.51;100.00;100598.16;4863388;29;20037;-76
2022/05/11 00:38:37;;;;;;;34.75;11.63;;;;;;;9.68;100.00;100618.28;4864356;29;20451;-77
2022/05/11 00:41:03;;;;;;;36.22;11.88;;;;;;;9.76;100.00;100630.72;4869319;29;20151;-77
2022/05/11 00:43:35;;;;;;;34.13;11.68;;;;;;;9.78;100.00;100629.50;4883026;29;20063;-76
2022/05/11 00:46:28;;;;;;;43.78;13.77;;;;;;;9.81;100.00;100628.28;4876401;29;20136;-77
2022/05/11 00:51:47;;;;;;;42.90;12.65;;;;;;;9.73;100.00;100602.38;4880554;29;20040;-77
2022/05/11 00:54:16;;;;;;;37.03;12.85;;;;;;;9.79;100.00;100615.03;4875359;29;20384;-77
2022/05/11 00:56:48;;;;;;;37.95;12.90;;;;;;;9.65;100.00;100589.97;4887888;29;20104;-77
2022/05/11 00:59:20;;;;;;;46.92;13.77;;;;;;;9.84;100.00;100625.22;4870825;29;20029;-77
2022/05/11 01:01:46;;;;;;;37.95;12.55;;;;;;;9.85;100.00;100625.00;4887762;29;20106;-77
2022/05/11 01:04:19;;;;;;;47.90;14.07;;;;;;;9.88;100.00;100632.66;4880646;29;20456;-77
2022/05/11 01:06:45;;;;;;;34.55;14.30;;;;;;;9.94;100.00;100632.91;4862961;29;20064;-77
2022/05/11 01:09:12;;;;;;;42.38;14.75;;;;;;;9.99;100.00;100622.38;4862128;29;20060;-76
2022/05/11 01:11:42;;;;;;;34.55;13.27;;;;;;;9.84;100.00;100590.28;4878366;29;20093;-77
2022/05/11 01:14:11;;;;;;;39.13;15.18;;;;;;;10.08;100.00;100618.50;4863159;29;20041;-77
2022/05/11 01:16:37;;;;;;;31.75;13.73;;;;;;;10.08;100.00;100622.00;4862356;29;20037;-77
2022/05/11 01:19:04;;;;;;;41.38;15.20;;;;;;;10.09;100.00;100622.81;4863138;29;20040;-77
2022/05/11 01:21:43;;;;;;;44.10;14.13;;;;;;;10.13;100.00;100626.75;4862087;29;20025;-77
2022/05/11 01:24:39;;;;;;;35.67;14.77;;;;;;;10.12;100.00;100617.88;4829632;29;20040;-77
2022/05/11 01:27:21;;;;;;;37.50;13.95;;;;;;;10.06;100.00;100605.22;4862044;29;20021;-76
2022/05/11 01:29:46;;;;;;;34.10;14.02;;;;;;;10.11;100.00;100613.53;4863419;29;20040;-77
2022/05/11 01:32:12;;;;;;;40.88;14.02;;;;;;;9.44;100.00;100497.88;4844163;29;20040;-77
2022/05/11 01:34:37;;;;;;;41.17;14.13;;;;;;;10.03;100.00;100610.19;4860797;29;20034;-77
2022/05/11 01:37:04;;;;;;;41.92;13.40;;;;;;;10.19;100.00;100634.03;4844148;29;20038;-77
2022/05/11 01:39:29;;;;;;;40.28;13.43;;;;;;;10.24;100.00;100628.06;4861550;29;20116;-77
2022/05/11 01:41:55;;;;;;;36.20;13.98;;;;;;;9.46;100.00;100503.91;4856866;29;20056;-77
2022/05/11 01:44:22;;;;;;;38.58;14.30;;;;;;;10.29;100.00;100631.00;4884406;29;20041;-77
2022/05/11 01:46:50;;;;;;;36.53;13.63;;;;;;;10.32;100.00;100619.84;4868156;29;20115;-77
2022/05/11 01:49:16;;;;;;;33.92;13.45;;;;;;;10.33;100.00;100616.97;4890677;29;20036;-77
2022/05/11 01:51:42;;;;;;;41.42;13.85;;;;;;;10.34;100.00;100618.63;4865786;29;20096;-77
2022/05/11 01:54:08;;;;;;;40.05;14.82;;;;;;;10.25;100.00;100598.28;4897044;29;20060;-77
2022/05/11 01:56:34;;;;;;;45.60;14.57;;;;;;;10.26;100.00;100594.56;4896492;29;20047;-77
2022/05/11 01:58:59;;;;;;;34.63;13.40;;;;;;;10.42;100.00;100627.53;4897268;29;20025;-77
2022/05/11 02:01:27;;;;;;;37.15;14.15;;;;;;;10.41;100.00;100617.81;4897508;29;20104;-77
2022/05/11 02:03:54;;;;;;;46.50;14.70;;;;;;;10.37;100.00;100606.63;4881587;29;20029;-77
2022/05/11 02:09:05;;;;;;;35.30;13.85;;;;;;;10.29;100.00;100587.97;4884032;29;20120;-77
2022/05/11 02:11:31;;;;;;;46.22;15.45;;;;;;;10.29;100.00;100586.09;4881192;29;20037;-77
2022/05/11 02:13:58;;;;;;;43.63;16.70;;;;;;;10.04;100.00;100560.78;4864644;29;20048;-77
2022/05/11 02:16:24;;;;;;;41.47;16.38;;;;;;;10.19;100.00;100607.16;4880656;29;20469;-77
2022/05/11 02:18:49;;;;;;;43.55;16.73;;;;;;;9.80;100.00;100557.59;4881209;29;20032;-77
2022/05/11 02:21:15;;;;;;;52.08;18.40;;;;;;;9.96;100.00;100585.97;4899240;29;20423;-76
2022/05/11 02:23:41;;;;;;;41.45;18.67;;;;;;;9.87;100.00;100573.75;4904375;29;20029;-77
2022/05/11 02:26:10;;;;;;;48.13;20.73;;;;;;;10.02;100.00;100600.47;4898129;29;20436;-77
2022/05/11 02:28:35;;;;;;;53.50;21.17;;;;;;;9.99;100.00;100609.75;4884263;29;20028;-77
2022/05/11 02:31:00;;;;;;;49.63;21.48;;;;;;;9.98;100.00;100602.72;4884327;29;20530;-76
2022/05/11 02:33:26;;;;;;;47.88;21.10;;;;;;;9.98;100.00;100607.28;4883625;29;20044;-77
2022/05/11 02:35:53;;;;;;;55.20;21.58;;;;;;;9.95;100.00;100595.06;4884637;29;20037;-77
2022/05/11 02:38:23;;;;;;;52.58;21.02;;;;;;;10.03;100.00;100612.88;4884511;29;20040;-76
2022/05/11 02:40:51;;;;;;;58.38;20.88;;;;;;;9.99;100.00;100587.44;4885199;29;20048;-77
2022/05/11 02:43:17;;;;;;;49.47;21.42;;;;;;;10.10;100.00;100600.31;4868729;29;20067;-77
2022/05/11 02:45:44;;;;;;;56.40;21.55;;;;;;;10.15;100.00;100592.44;4864983;29;20064;-77
2022/05/11 02:48:17;;;;;;;50.83;21.80;;;;;;;10.20;100.00;100587.31;4864995;29;20029;-76
2022/05/11 02:50:49;;;;;;;49.72;21.52;;;;;;;10.21;100.00;100586.28;4880400;29;20044;-77
2022/05/11 02:53:22;;;;;;;58.22;21.23;;;;;;;10.09;100.00;100567.19;4848558;29;20073;-77
2022/05/11 02:55:49;;;;;;;44.03;20.25;;;;;;;10.17;100.00;100576.97;4832270;29;20479;-77
2022/05/11 02:58:17;;;;;;;49.45;20.17;;;;;;;10.09;100.00;100552.94;4865284;29;20034;-77
2022/05/11 03:00:46;;;;;;;54.40;19.90;;;;;;;10.08;100.00;100549.41;4853476;29;20026;-77
2022/05/11 03:03:14;;;;;;;50.40;18.95;;;;;;;10.28;100.00;100580.94;4885592;29;20487;-77
2022/05/11 03:05:41;;;;;;;52.45;19.00;;;;;;;10.09;100.00;100547.56;4870213;29;20037;-76
2022/05/11 03:08:06;;;;;;;52.47;18.95;;;;;;;10.28;100.00;100580.94;4882240;29;20474;-77
2022/05/11 03:10:32;;;;;;;51.83;17.90;;;;;;;10.26;100.00;100578.44;4877926;29;20045;-77
2022/05/11 03:12:57;;;;;;;45.85;17.15;;;;;;;10.15;100.00;100554.81;4865283;29;20033;-77
2022/05/11 03:15:23;;;;;;;50.80;16.80;;;;;;;10.11;100.00;100545.50;4864214;29;20065;-77
2022/05/11 03:17:49;;;;;;;40.13;15.80;;;;;;;10.29;100.00;100580.72;4864354;29;20108;-77
2022/05/11 03:20:14;;;;;;;40.70;15.80;;;;;;;10.31;100.00;100581.38;4878640;29;20034;-77
2022/05/11 03:22:40;;;;;;;36.33;15.52;;;;;;;10.15;100.00;100546.75;4863645;29;20021;-77
2022/05/11 03:25:07;;;;;;;44.30;14.45;;;;;;;10.30;100.00;100573.53;4881425;29;20085;-77
2022/05/11 03:27:33;;;;;;;48.47;14.40;;;;;;;10.12;100.00;100545.28;4865343;29;20025;-77
2022/05/11 03:29:58;;;;;;;37.85;13.73;;;;;;;10.29;100.00;100572.66;4849044;29;20052;-76
2022/05/11 03:35:10;;;;;;;48.03;13.20;;;;;;;10.52;100.00;100568.78;4863210;29;20081;-77
2022/05/11 03:37:37;;;;;;;45.00;13.15;;;;;;;10.59;100.00;100566.94;4846506;29;20097;-77
2022/05/11 03:40:05;;;;;;;36.78;12.63;;;;;;;10.77;100.00;100571.72;4881304;29;20025;-77
2022/05/11 03:42:32;;;;;;;35.50;12.10;;;;;;;10.89;100.00;100569.22;4864412;29;20063;-77
2022/05/11 03:45:11;;;;;;;35.97;11.48;;;;;;;10.75;100.00;100565.72;4851253;29;20053;-77
2022/05/11 03:47:36;;;;;;;41.95;12.45;;;;;;;10.65;100.00;100568.81;4878420;29;20108;-77
2022/05/11 03:50:03;;;;;;;32.50;10.45;;;;;;;10.45;100.00;100554.50;4848449;29;20548;-77
2022/05/11 03:52:28;;;;;;;38.60;11.23;;;;;;;10.62;100.00;100566.53;4863602;29;20037;-77
2022/05/11 03:54:53;;;;;;;38.20;11.20;;;;;;;10.95;100.00;100560.34;4865224;29;20416;-77
2022/05/11 03:57:19;;;;;;;33.03;10.70;;;;;;;10.85;100.00;100566.13;4864210;29;20416;-77
2022/05/11 03:59:44;;;;;;;39.85;11.30;;;;;;;10.66;100.00;100550.78;4865247;29;20116;-77
2022/05/11 04:02:09;;;;;;;38.92;10.40;;;;;;;10.72;100.00;100561.56;4872244;29;20037;-77
2022/05/11 04:04:35;;;;;;;33.78;10.48;;;;;;;10.60;100.00;100552.47;4897946;29;20029;-76
2022/05/11 04:07:00;;;;;;;32.58;9.98;;;;;;;10.74;100.00;100564.06;4877715;29;20514;-77
2022/05/11 04:09:25;;;;;;;31.98;11.20;;;;;;;10.86;100.00;100564.25;4865081;29;20082;-77
2022/05/11 04:11:51;;;;;;;36.35;11.00;;;;;;;11.37;100.00;100548.28;4848108;29;20089;-77
2022/05/11 04:14:17;;;;;;;32.80;9.20;;;;;;;12.03;100.00;100562.59;4866208;29;20029;-77
2022/05/11 04:16:43;;;;;;;34.42;10.07;;;;;;;12.66;100.00;100562.66;4867783;29;20041;-77
2022/05/11 04:19:09;;;;;;;29.48;9.93;;;;;;;13.06;100.00;100508.31;4863743;29;20033;-77
2022/05/11 04:21:34;;;;;;;37.33;9.57;;;;;;;14.01;100.00;100564.69;4879940;29;20036;-77
2022/05/11 04:23:59;;;;;;;34.83;8.80;;;;;;;13.76;100.00;100537.72;4864429;29;20033;-77
2022/05/11 04:26:24;;;;;;;26.77;8.80;;;;;;;13.30;100.00;100564.19;4843270;29;20049;-77
2022/05/11 04:28:50;;;;;;;42.58;9.82;;;;;;;13.56;100.00;100546.06;4851878;29;20032;-76
2022/05/11 04:31:15;;;;;;;26.92;8.18;;;;;;;13.93;100.00;100565.78;4875390;29;20143;-76
2022/05/11 04:33:41;;;;;;;26.50;8.30;;;;;;;14.39;100.00;100550.81;4862155;29;20039;-76
2022/05/11 04:36:07;;;;;;;28.27;8.15;;;;;;;14.66;100.00;100550.44;4863734;29;20127;-77
2022/05/11 04:38:34;;;;;;;25.52;8.10;;;;;;;14.61;100.00;100558.47;4880299;29;20032;-76
2022/05/11 04:41:00;;;;;;;25.35;7.63;;;;;;;14.54;100.00;100543.13;4879453;29;20033;-77
2022/05/11 04:43:26;;;;;;;24.67;7.00;;;;;;;14.27;100.00;100550.78;4850872;29;20475;-78
2022/05/11 04:45:51;;;;;;;26.83;7.07;;;;;;;14.18;100.00;100522.41;4886817;29;20060;-77
2022/05/11 04:48:18;;;;;;;23.95;6.45;;;;;;;13.99;100.00;100545.94;4882033;29;20051;-76
2022/05/11 04:50:45;;;;;;;28.08;6.70;;;;;;;14.04;100.00;100516.34;4886172;29;20053;-77
2022/05/11 04:53:15;;;;;;;24.83;6.55;;;;;;;14.42;100.00;100531.41;4885921;29;20043;-77
2022/05/11 04:55:41;;;;;;;27.45;6.78;;;;;;;14.54;100.00;100551.25;4858464;29;20029;-75
2022/05/11 04:58:06;;;;;;;19.65;6.32;;;;;;;14.45;100.00;100555.31;4896392;29;20443;-76
2022/05/11 05:00:34;;;;;;;19.85;5.72;;;;;;;14.30;100.00;100560.31;4869707;29;20412;-77
2022/05/11 05:03:05;;;;;;;25.15;6.75;;;;;;;13.80;100.00;100542.44;4863841;29;20467;-76
2022/05/11 05:05:45;;;;;;;26.00;6.60;;;;;;;13.59;100.00;100556.44;4895855;29;20078;-76
2022/05/11 05:08:11;;;;;;;24.40;7.13;;;;;;;13.47;100.00;100559.03;4894734;29;20554;-76
2022/05/11 05:10:39;;;;;;;31.10;6.47;;;;;;;13.33;100.00;100555.66;4879119;29;20107;-76
2022/05/11 05:13:08;;;;;;;24.38;6.60;;;;;;;13.20;100.00;100549.53;4880064;29;20358;-77
2022/05/11 05:15:36;;;;;;;22.40;6.05;;;;;;;12.97;100.00;100537.47;4893891;29;20032;-76
2022/05/11 05:18:03;;;;;;;24.30;6.10;;;;;;;12.98;100.00;100554.47;4889396;29;20100;-76
2022/05/11 05:20:30;;;;;;;19.80;6.35;;;;;;;13.03;100.00;100552.78;4893048;29;20029;-77
2022/05/11 05:22:55;;;;;;;27.60;6.88;;;;;;;12.94;100.00;100544.13;4879211;29;20055;-76
2022/05/11 05:25:21;;;;;;;26.45;6.13;;;;;;;13.01;100.00;100551.34;4882976;29;20463;-76
2022/05/11 05:27:49;;;;;;;22.52;6.40;;;;;;;13.07;100.00;100537.78;4867806;29;20120;-76
2022/05/11 05:32:58;;;;;;;24.92;6.57;;;;;;;13.35;100.00;100548.16;4882705;29;20046;-76
2022/05/11 05:35:24;;;;;;;20.38;7.35;;;;;;;13.51;100.00;100548.59;4865332;29;20032;-77
2022/05/11 05:37:49;;;;;;;25.08;5.97;;;;;;;13.68;100.00;100546.97;4879080;29;20056;-77
2022/05/11 05:40:14;;;;;;;19.55;6.13;;;;;;;13.85;100.00;100556.13;4864775;29;20421;-77
2022/05/11 05:42:49;;;;;;;21.70;6.18;;;;;;;14.01;100.00;100540.31;4861708;29;20075;-77
2022/05/11 05:45:23;;;;;;;23.33;5.88;;;;;;;13.72;100.00;100477.03;4895891;29;20063;-77
2022/05/11 05:47:48;;;;;;;20.75;6.03;;;;;;;13.76;100.00;100453.88;4898950;29;20428;-77
2022/05/11 05:50:14;;;;;;;24.25;5.65;;;;;;;14.49;100.00;100548.38;4885347;29;20071;-77
2022/05/11 05:52:39;;;;;;;21.65;5.63;;;;;;;14.57;100.00;100542.66;4882101;29;20041;-77
2022/05/11 05:55:05;;;;;;;20.25;5.85;;;;;;;14.36;100.00;100507.97;4899810;29;20037;-77
2022/05/11 05:57:30;;;;;;;23.45;5.68;;;;;;;14.68;100.00;100537.50;4901884;29;20115;-77
2022/05/11 05:59:56;;;;;;;18.83;5.47;;;;;;;14.83;100.00;100539.75;4890513;29;20080;-77
2022/05/11 06:02:22;;;;;;;20.33;6.05;;;;;;;14.82;100.00;100536.22;4884574;29;20096;-77
2022/05/11 06:04:49;;;;;;;20.55;5.55;;;;;;;14.86;100.00;100534.69;4887083;29;20131;-77
2022/05/11 06:07:17;;;;;;;18.90;4.93;;;;;;;14.67;100.00;100500.63;4904412;29;20044;-77
2022/05/11 06:09:50;;;;;;;21.58;5.35;;;;;;;14.53;100.00;100518.97;4902217;29;20116;-77
2022/05/11 06:12:15;;;;;;;17.27;5.40;;;;;;;14.38;100.00;100516.69;4885897;29;20040;-78
2022/05/11 06:14:42;;;;;;;21.35;5.30;;;;;;;14.38;100.00;100516.69;4886712;29;20040;-77
2022/05/11 06:17:25;;;;;;;22.38;5.05;;;;;;;14.36;100.00;100518.78;4872395;29;20121;-77
2022/05/11 06:19:52;;;;;;;19.30;5.97;;;;;;;14.33;100.00;100511.94;4901766;29;20068;-77
2022/05/11 06:22:18;;;;;;;19.88;5.38;;;;;;;14.33;100.00;100508.44;4884532;29;20376;-77
2022/05/11 06:24:49;;;;;;;18.58;6.00;;;;;;;14.24;100.00;100523.38;4888666;29;20029;-78
2022/05/11 06:27:17;;;;;;;22.48;5.78;;;;;;;13.79;100.00;100448.84;4905908;29;20032;-77
2022/05/11 06:29:50;;;;;;;16.80;5.25;;;;;;;14.06;100.00;100507.97;4898954;29;20037;-77
2022/05/11 06:32:19;;;;;;;18.40;5.22;;;;;;;14.03;100.00;100511.97;4901379;29;20518;-77
2022/05/11 06:34:45;;;;;;;21.33;6.00;;;;;;;14.01;100.00;100505.16;4868845;29;20068;-77
2022/05/11 06:37:10;;;;;;;18.60;5.68;;;;;;;13.84;100.00;100483.31;4905480;29;20033;-76
2022/05/11 06:39:36;;;;;;;21.52;6.35;;;;;;;13.95;100.00;100506.06;4901274;29;20471;-77
2022/05/11 06:42:07;;;;;;;17.70;6.18;;;;;;;13.92;100.00;100511.94;4869631;29;20047;-77
2022/05/11 06:44:34;;;;;;;23.75;6.05;;;;;;;13.95;100.00;100501.47;4901632;29;20476;-77
2022/05/11 06:46:59;;;;;;;21.50;6.05;;;;;;;13.73;100.00;100481.38;4881624;29;20063;-77
2022/05/11 06:49:24;;;;;;;18.00;5.00;;;;;;;13.85;100.00;100512.84;4882451;29;20451;-77
2022/05/11 06:51:50;;;;;;;25.98;5.60;;;;;;;13.87;100.00;100520.72;4880600;29;20032;-77
2022/05/11 06:59:43;;;;;;;23.23;6.25;;;;;;;13.55;100.00;100474.13;4895639;29;20109;-77
2022/05/11 07:02:09;;;;;;;17.35;5.28;;;;;;;13.76;100.00;100507.97;4880069;29;20103;-77
2022/05/11 07:04:36;;;;;;;22.65;5.90;;;;;;;13.90;100.00;100517.56;4897450;29;20044;-77
2022/05/11 07:07:02;;;;;;;18.17;6.38;;;;;;;13.71;100.00;100495.16;4866886;29;20115;-77
2022/05/11 07:09:32;;;;;;;20.35;5.28;;;;;;;13.96;100.00;100521.25;4863977;29;20033;-77
2022/05/11 07:12:17;;;;;;;16.15;5.22;;;;;;;13.80;100.00;100499.16;4883438;29;20028;-77
2022/05/11 07:14:48;;;;;;;22.95;5.22;;;;;;;13.92;100.00;100493.81;4897233;29;20033;-78
2022/05/11 07:17:56;;;;;;;20.15;5.55;;;;;;;14.15;100.00;100500.38;4880940;29;20052;-78
2022/05/11 07:20:26;;;;;;;21.08;5.35;;;;;;;14.17;100.00;100496.41;4818553;29;20045;-77
2022/05/11 07:22:53;;;;;;;21.25;5.72;;;;;;;14.26;100.00;100486.88;4829884;29;20083;-77
2022/05/11 07:25:21;;;;;;;24.67;5.05;;;;;;;14.49;100.00;100491.53;4870444;29;20083;-77
2022/05/11 07:27:48;;;;;;;20.48;5.10;;;;;;;14.38;100.00;100462.56;4898878;29;20021;-77
2022/05/11 07:30:16;;;;;;;20.05;5.78;;;;;;;14.66;100.00;100480.03;4896485;29;20075;-77
2022/05/11 07:32:41;;;;;;;21.55;5.68;;;;;;;14.74;100.00;100502.19;4896900;29;20042;-77
2022/05/11 07:35:07;;;;;;;18.33;5.30;;;;;;;14.87;100.00;100493.03;4880300;29;20526;-77
2022/05/11 07:37:32;;;;;;;21.13;5.45;;;;;;;15.00;100.00;100478.41;4897251;29;20032;-77
2022/05/11 07:39:59;;;;;;;21.45;5.80;;;;;;;14.99;100.00;100485.69;4880585;29;20095;-77
2022/05/11 07:42:25;;;;;;;21.00;5.70;;;;;;;14.96;100.00;100483.47;4887654;29;20096;-77
2022/05/11 07:44:51;;;;;;;15.32;5.20;;;;;;;15.07;100.00;100489.16;4879638;29;20053;-78
2022/05/11 07:47:20;;;;;;;18.88;5.45;;;;;;;14.97;100.00;100449.91;4900392;29;20336;-77
2022/05/11 07:49:47;;;;;;;17.35;4.97;;;;;;;15.26;100.00;100477.06;4881746;29;20029;-77
2022/05/11 07:52:13;;;;;;;18.50;5.47;;;;;;;15.07;100.00;100427.63;4884094;29;20036;-77
2022/05/11 07:54:40;;;;;;;19.88;4.93;;;;;;;15.18;100.00;100448.47;4899162;29;20108;-78
2022/05/11 07:59:57;;;;;;;17.33;5.50;;;;;;;15.56;100.00;100467.94;4898118;29;20374;-78
2022/05/11 08:02:28;;;;;;;21.08;5.15;;;;;;;15.50;100.00;100475.97;4870933;29;20068;-77
2022/05/11 08:04:59;;;;;;;19.73;4.97;;;;;;;15.57;100.00;100465.00;4900103;29;20478;-77
2022/05/11 08:07:53;;;;;;;20.85;5.93;;;;;;;15.76;100.00;100467.56;4897234;29;20091;-77
2022/05/11 08:10:29;;;;;;;19.20;5.65;;;;;;;15.83;100.00;100458.22;4869114;29;20416;-77
2022/05/11 08:12:55;;;;;;;17.33;5.43;;;;;;;15.78;100.00;100457.28;4881812;29;20355;-77
2022/05/11 08:15:23;;;;;;;17.95;6.43;;;;;;;15.12;100.00;100349.13;4887236;29;20036;-77
2022/05/11 08:17:50;;;;;;;18.88;5.18;;;;;;;15.92;100.00;100461.34;4880664;29;20064;-77
2022/05/11 08:20:22;;;;;;;19.67;5.38;;;;;;;15.80;100.00;100433.47;4896436;29;20032;-78
2022/05/11 08:22:48;;;;;;;22.35;5.85;;;;;;;16.01;100.00;100451.75;4899528;29;20060;-77
2022/05/11 08:25:17;;;;;;;19.23;5.82;;;;;;;15.87;100.00;100437.66;4882328;29;20088;-77
2022/05/11 08:27:42;;;;;;;23.50;6.22;;;;;;;15.88;100.00;100439.31;4882029;29;20131;-77
2022/05/11 08:35:39;;;;;;;17.40;5.15;;;;;;;15.82;100.00;100440.28;4896015;29;20035;-77
2022/05/11 08:38:05;;;;;;;17.27;5.63;;;;;;;15.59;100.00;100410.50;4866365;29;20040;-77
2022/05/11 08:40:37;;;;;;;17.70;6.13;;;;;;;15.81;100.00;100445.97;4895361;29;20125;-77
2022/05/11 08:43:05;;;;;;;18.67;6.03;;;;;;;15.61;100.00;100435.50;4895183;29;20511;-77
2022/05/11 08:45:41;;;;;;;17.08;5.22;;;;;;;15.63;100.00;100438.78;4893650;29;20060;-77
2022/05/11 08:48:39;;;;;;;21.00;5.63;;;;;;;15.68;100.00;100447.06;4895633;29;20043;-77
2022/05/11 08:51:09;;;;;;;21.02;5.93;;;;;;;15.55;100.00;100445.44;4835896;29;20114;-77
2022/05/11 08:53:41;;;;;;;19.17;5.45;;;;;;;15.53;100.00;100444.84;4895532;29;20044;-76
2022/05/11 08:56:29;;;;;;;20.30;5.43;;;;;;;15.10;100.00;100369.41;4879549;29;20047;-78
2022/05/11 08:58:54;;;;;;;19.30;5.72;;;;;;;15.43;100.00;100404.81;4883074;29;20036;-78
2022/05/11 09:01:29;;;;;;;14.45;5.32;;;;;;;15.43;100.00;100399.38;4884482;29;20025;-77
2022/05/11 09:03:58;;;;;;;18.80;5.72;;;;;;;15.46;100.00;100387.22;4894965;29;20047;-78
2022/05/11 09:06:30;;;;;;;18.25;6.47;;;;;;;15.66;100.00;100408.47;4882330;29;20024;-77
2022/05/11 09:08:58;;;;;;;21.67;5.82;;;;;;;15.63;100.00;100395.38;4882589;29;20461;-77
2022/05/11 09:11:42;;;;;;;17.50;5.68;;;;;;;15.52;100.00;100370.78;4884288;29;20043;-78
2022/05/11 09:14:08;;;;;;;20.42;6.18;;;;;;;15.62;100.00;100385.63;4882088;29;20172;-77
2022/05/11 09:16:41;;;;;;;22.00;5.72;;;;;;;15.59;100.00;100356.25;4879762;29;20116;-77
2022/05/11 09:19:12;;;;;;;17.88;6.97;;;;;;;15.66;100.00;100346.09;4881339;29;20021;-77
2022/05/11 09:21:39;;;;;;;20.75;6.38;;;;;;;15.75;100.00;100350.09;4891230;29;20454;-77
2022/05/11 09:24:21;;;;;;;18.05;5.82;;;;;;;16.00;100.00;100371.41;4894131;29;20118;-77
2022/05/11 09:27:01;;;;;;;16.17;6.43;;;;;;;15.95;100.00;100385.72;4896064;29;20025;-77
2022/05/11 09:29:39;;;;;;;18.80;6.28;;;;;;;15.87;100.00;100375.28;4879551;29;20146;-77
2022/05/11 09:32:29;;;;;;;26.15;7.40;;;;;;;15.69;100.00;100342.91;4884419;29;20076;-77
2022/05/11 09:34:55;;;;;;;20.63;7.05;;;;;;;15.78;100.00;100370.47;4902628;29;20087;-77
2022/05/11 09:37:32;;;;;;;21.45;7.30;;;;;;;15.63;100.00;100338.44;4903733;29;20032;-77
2022/05/11 09:40:26;;;;;;;22.23;7.78;;;;;;;15.82;100.00;100348.03;4881582;29;20031;-77
2022/05/11 09:43:00;;;;;;;18.55;7.00;;;;;;;15.81;100.00;100343.69;4895798;29;20028;-76
2022/05/11 09:45:38;;;;;;;20.02;7.05;;;;;;;15.91;100.00;100352.00;4894473;29;20048;-76
2022/05/11 09:48:16;;;;;;;19.50;6.88;;;;;;;15.82;100.00;100330.94;4881007;29;20033;-76
2022/05/11 09:50:42;;;;;;;26.98;7.55;;;;;;;15.39;100.00;100292.47;4892107;29;20481;-76
2022/05/11 09:53:24;;;;;;;19.08;7.55;;;;;;;15.52;100.00;100311.13;4895389;29;20033;-76
2022/05/11 09:55:50;;;;;;;22.45;6.53;;;;;;;15.46;100.00;100328.41;4894957;29;20033;-76
2022/05/11 09:58:29;;;;;;;27.17;7.47;;;;;;;15.22;100.00;100307.88;4880635;29;20044;-76
2022/05/11 10:01:14;;;;;;;19.98;7.28;;;;;;;15.13;100.00;100328.28;4892169;29;20020;-76
2022/05/11 10:03:48;;;;;;;19.77;7.55;;;;;;;14.90;100.00;100310.19;4894879;29;20103;-76
2022/05/11 10:06:18;;;;;;;20.25;7.68;;;;;;;14.76;100.00;100286.09;4893750;29;20114;-77
2022/05/11 10:08:45;;;;;;;25.63;7.15;;;;;;;14.79;100.00;100309.19;4894810;29;20024;-77
2022/05/11 10:11:24;;;;;;;25.67;7.75;;;;;;;14.78;100.00;100302.13;4863810;29;20128;-77
2022/05/11 10:13:58;;;;;;;19.38;7.22;;;;;;;14.78;100.00;100288.59;4909155;29;20021;-77
2022/05/11 10:22:38;;;;;;;20.15;7.05;;;;;;;14.78;100.00;100278.56;4886301;29;20370;-77
2022/05/11 10:25:16;;;;;;;26.98;8.10;;;;;;;14.79;100.00;100279.38;4897207;29;20047;-76
2022/05/11 10:27:46;;;;;;;22.70;7.78;;;;;;;14.28;100.00;100224.16;4896024;29;20036;-78
2022/05/11 10:30:11;;;;;;;17.92;7.30;;;;;;;14.55;100.00;100262.38;4897574;29;20028;-78
2022/05/11 10:33:14;;;;;;;24.85;8.90;;;;;;;14.41;100.00;100279.91;4892512;29;20042;-77
2022/05/11 10:36:17;;;;;;;20.70;8.30;;;;;;;14.34;100.00;100280.03;4895461;29;20352;-77
2022/05/11 10:38:49;;;;;;;26.70;9.50;;;;;;;14.16;100.00;100270.16;4888597;29;20055;-78
2022/05/11 10:41:30;;;;;;;27.02;10.02;;;;;;;14.06;100.00;100273.44;4896218;29;20028;-78
2022/05/11 10:44:25;;;;;;;28.50;11.82;;;;;;;13.83;100.00;100247.19;4883422;29;20063;-78
2022/05/11 10:47:24;;;;;;;29.35;13.20;;;;;;;13.84;100.00;100267.81;4895946;29;20141;-78
2022/05/11 10:50:04;;;;;;;33.58;14.52;;;;;;;13.73;100.00;100265.06;4891894;29;20382;-78
2022/05/11 10:52:36;;;;;;;31.33;14.88;;;;;;;13.56;100.00;100271.16;4903290;29;20043;-78
2022/05/11 10:55:25;;;;;;;41.10;15.93;;;;;;;13.46;100.00;100270.88;4899888;29;20047;-78
2022/05/11 10:58:14;;;;;;;35.78;17.00;;;;;;;13.44;100.00;100280.28;4912297;29;20982;-79
2022/05/11 11:00:54;;;;;;;33.13;15.45;;;;;;;13.46;100.00;100280.88;4899160;29;20041;-78
2022/05/11 11:04:06;;;;;;;32.55;17.00;;;;;;;13.45;100.00;100285.47;4903344;29;20064;-78
2022/05/11 11:07:14;;;;;;;41.63;19.85;;;;;;;13.25;100.00;100280.34;4903470;29;20063;-80
2022/05/11 11:09:43;;;;;;;35.88;18.80;;;;;;;13.19;100.00;100285.81;4897989;29;20029;-80
2022/05/11 11:12:17;;;;;;;41.17;19.27;;;;;;;13.20;100.00;100273.94;4902011;29;20039;-80
2022/05/11 11:14:49;;;;;;;41.58;21.10;;;;;;;13.06;100.00;100270.59;4900771;29;20036;-79
2022/05/11 11:17:19;;;;;;;44.78;20.73;;;;;;;13.16;100.00;100273.59;4885621;29;20036;-78
2022/05/11 11:19:49;;;;;;;47.33;22.67;;;;;;;13.14;100.00;100279.22;4893688;29;20025;-79
2022/05/11 11:22:15;;;;;;;51.63;22.10;;;;;;;13.10;100.00;100271.78;4900197;29;20067;-79
2022/05/11 11:24:43;;;;;;;43.08;20.52;;;;;;;13.12;100.00;100265.13;4885241;29;20036;-79
2022/05/11 11:27:09;;;;;;;42.05;21.88;;;;;;;13.25;100.00;100274.13;4888515;29;20430;-79
2022/05/11 11:29:36;;;;;;;42.90;23.00;;;;;;;13.09;100.00;100253.94;4884538;29;20040;-79
2022/05/11 11:32:11;;;;;;;40.55;22.80;;;;;;;13.24;100.00;100267.03;4899333;29;20348;-81
2022/05/11 11:34:42;;;;;;;44.35;22.67;;;;;;;13.26;100.00;100268.47;4894933;29;20025;-80
2022/05/11 11:37:29;;;;;;;44.47;23.02;;;;;;;13.26;100.00;100265.78;4902450;29;20036;-81
2022/05/11 11:39:57;;;;;;;45.00;22.70;;;;;;;13.19;100.00;100264.19;4898931;29;20013;-80
2022/05/11 11:42:38;;;;;;;47.75;23.55;;;;;;;12.94;100.00;100205.72;4886920;29;20036;-81
2022/05/11 11:45:08;;;;;;;42.80;23.45;;;;;;;13.21;100.00;100245.88;4910695;29;20147;-81
2022/05/11 11:47:37;;;;;;;48.90;24.30;;;;;;;13.20;100.00;100253.16;4904487;29;20028;-80
2022/05/11 11:50:04;;;;;;;41.28;22.67;;;;;;;13.25;100.00;100253.34;4890563;29;20048;-80
2022/05/11 11:52:34;;;;;;;40.78;21.42;;;;;;;13.24;100.00;100251.66;4882589;29;20024;-80